Viimsi — ES2084 — position and weather

sailwx.info

Track history (hours):
 
Tides and Currents Weather Stations Pressure Air Temp Water Temp Dewpoint Dewpoint Depression Visibility Wind Speed Wind Dir Waves Ship Positions

Viimsi

Last reported at 2016-Aug-31 04:33 UTC. Time now 2016-Aug-31 06:11 UTC.
Position N 59°28' E 024°43'.

Length 78 m; draft 4.5 m.

Type: Ship. MMSI: 276297000.

Date/timePositionNaut miles runAvg speedWind from/ knotsBaromVisibWave heightAir tempDewpointWater temp
2016-Aug-31 04:33N 59°28' E 024°43'0 0.0
2016-Aug-31 03:33N 59°28' E 024°43'0 0.0
2016-Aug-31 02:33N 59°28' E 024°43'0 0.0
2016-Aug-31 01:33N 59°28' E 024°43'0 0.0
2016-Aug-31 00:33N 59°28' E 024°43'0 0.0
2016-Aug-30 23:33N 59°28' E 024°43'0 0.2
2016-Aug-30 22:33N 59°28' E 024°43'0 0.0
2016-Aug-30 21:33N 59°28' E 024°43'0 0.1
2016-Aug-30 20:34N 59°28' E 024°43'7 6.8
2016-Aug-30 19:33N 59°34' E 024°41'5 5.1
2016-Aug-30 18:33N 59°35' E 024°51'2 0.5
2016-Aug-30 13:33N 59°33' E 024°54'6 6.2
2016-Aug-30 12:33N 59°35' E 024°42'8 7.6
2016-Aug-30 11:34N 59°28' E 024°38'1 0.6
2016-Aug-30 10:33N 59°28' E 024°39'0 0.0
2016-Aug-30 09:33N 59°28' E 024°39'0 0.0
2016-Aug-30 08:33N 59°28' E 024°39'1 1.2
2016-Aug-30 07:33N 59°29' E 024°38'3 2.8
2016-Aug-30 06:33N 59°28' E 024°43'0 0.0
2016-Aug-30 05:33N 59°28' E 024°43'0 0.2
2016-Aug-30 04:33N 59°28' E 024°43'0 0.0
2016-Aug-30 03:33N 59°28' E 024°43'0 0.0
2016-Aug-30 02:33N 59°28' E 024°43'0 0.0
2016-Aug-30 01:33N 59°28' E 024°43'0 0.0
2016-Aug-30 00:33N 59°28' E 024°43'0 0.0
2016-Aug-29 23:33N 59°28' E 024°43'0 0.0
2016-Aug-29 22:33N 59°28' E 024°43'0 0.0
2016-Aug-29 21:33N 59°28' E 024°43'0 0.0
2016-Aug-29 20:33N 59°28' E 024°43'0 0.0
2016-Aug-29 19:33N 59°28' E 024°43'0 0.0
2016-Aug-29 18:33N 59°28' E 024°43'0 0.0
2016-Aug-29 17:33N 59°28' E 024°43'0 0.0
2016-Aug-29 16:33N 59°28' E 024°43'0 0.1
2016-Aug-29 15:33N 59°28' E 024°43'0 0.1
2016-Aug-29 13:20N 59°28' E 024°43'0 0.0
2016-Aug-29 12:28N 59°28' E 024°43'0 0.0
2016-Aug-29 11:29N 59°28' E 024°43'0 0.0
2016-Aug-29 10:25N 59°28' E 024°43'0 0.0
2016-Aug-29 09:33N 59°28' E 024°43'0 0.0
2016-Aug-29 08:28N 59°28' E 024°43'5 1.8
2016-Aug-29 05:32N 59°29' E 024°32'0 0.0
2016-Aug-29 04:31N 59°29' E 024°32'0 0.0
2016-Aug-29 03:33N 59°29' E 024°32'1 1.4
2016-Aug-29 02:33N 59°29' E 024°35'2 2.1
2016-Aug-29 01:33N 59°28' E 024°39'0 0.0
2016-Aug-29 00:33N 59°28' E 024°39'0 0.0
2016-Aug-28 23:34N 59°28' E 024°39'0 0.0
2016-Aug-28 22:34N 59°28' E 024°39'0 0.0
2016-Aug-28 21:33N 59°28' E 024°39'0 0.0
2016-Aug-28 20:34N 59°28' E 024°39'0 0.0
2016-Aug-28 19:33N 59°28' E 024°39'0 0.0
2016-Aug-28 18:33N 59°28' E 024°39'0 0.0
2016-Aug-28 17:33N 59°28' E 024°39'0 0.0
2016-Aug-28 16:34N 59°28' E 024°39'0 0.0
2016-Aug-28 15:33N 59°28' E 024°39'0 0.0
2016-Aug-28 14:33N 59°28' E 024°39'0 0.0
2016-Aug-28 13:33N 59°28' E 024°39'0 0.0
2016-Aug-28 12:33N 59°28' E 024°39'0 0.0
2016-Aug-28 11:33N 59°28' E 024°39'0 0.0
2016-Aug-28 10:33N 59°28' E 024°39'1 1.2
2016-Aug-28 09:33N 59°29' E 024°37'5 4.7
2016-Aug-28 08:34N 59°27' E 024°46'0 0.0
2016-Aug-28 07:33N 59°27' E 024°46'0 0.0
2016-Aug-28 06:34N 59°27' E 024°46'0 0.0
2016-Aug-28 05:34N 59°27' E 024°46'2 1.5
2016-Aug-28 04:34N 59°28' E 024°43'0 0.0
2016-Aug-28 03:33N 59°28' E 024°43'0 0.0
2016-Aug-28 02:33N 59°28' E 024°43'0 0.0
2016-Aug-28 01:34N 59°28' E 024°43'0 0.0
2016-Aug-28 00:34N 59°28' E 024°43'0 0.0
2016-Aug-27 23:34N 59°28' E 024°43'0 0.0
2016-Aug-27 22:34N 59°28' E 024°43'0 0.0
2016-Aug-27 21:33N 59°28' E 024°43'0 0.0
2016-Aug-27 20:34N 59°28' E 024°43'0 0.0
2016-Aug-27 19:34N 59°28' E 024°43'0 0.0
2016-Aug-27 18:33N 59°28' E 024°43'0 0.0
2016-Aug-27 17:33N 59°28' E 024°43'0 0.0
2016-Aug-27 16:34N 59°28' E 024°43'0 0.0
2016-Aug-27 15:33N 59°28' E 024°43'0 0.0
2016-Aug-27 14:33N 59°28' E 024°43'0 0.0
2016-Aug-27 13:33N 59°28' E 024°43'0 0.0
2016-Aug-27 12:33N 59°28' E 024°43'1 1.4
2016-Aug-27 11:33N 59°29' E 024°44'5 5.3
2016-Aug-27 10:34N 59°29' E 024°34'1 0.6
2016-Aug-27 09:32N 59°29' E 024°33'0 0.0
2016-Aug-27 08:33N 59°29' E 024°33'0 0.0
2016-Aug-27 07:33N 59°29' E 024°33'0 0.0
2016-Aug-27 06:31N 59°29' E 024°33'0 0.0
2016-Aug-27 04:26N 59°29' E 024°33'0 0.0
2016-Aug-27 03:29N 59°29' E 024°33'0 0.0
2016-Aug-27 02:33N 59°29' E 024°33'0 0.0
2016-Aug-27 01:34N 59°29' E 024°33'1 0.6
2016-Aug-27 00:33N 59°29' E 024°34'5 4.9
2016-Aug-26 23:33N 59°28' E 024°43'0 0.2
2016-Aug-26 22:33N 59°28' E 024°43'0 0.0
2016-Aug-26 21:33N 59°28' E 024°43'0 0.0
2016-Aug-26 20:33N 59°28' E 024°43'0 0.0
2016-Aug-26 19:33N 59°28' E 024°43'0 0.0
2016-Aug-26 18:33N 59°28' E 024°43'0 0.0
2016-Aug-26 17:33N 59°28' E 024°43'0 0.0
2016-Aug-26 16:33N 59°28' E 024°43'0 0.0
2016-Aug-26 15:33N 59°28' E 024°43'0 0.0
2016-Aug-26 14:33N 59°28' E 024°43'0 0.0
2016-Aug-26 13:33N 59°28' E 024°43'0 0.0
2016-Aug-26 12:33N 59°28' E 024°43'0 0.0
2016-Aug-26 11:33N 59°28' E 024°43'0 0.0
2016-Aug-26 10:33N 59°28' E 024°43'0 0.0
2016-Aug-26 09:33N 59°28' E 024°43'0 0.0
2016-Aug-26 08:33N 59°28' E 024°43'0 0.0
2016-Aug-26 07:34N 59°28' E 024°43'0 0.0
2016-Aug-26 06:33N 59°28' E 024°43'6 2.7
2016-Aug-26 04:28N 59°29' E 024°32'0 0.0
2016-Aug-26 03:33N 59°29' E 024°32'0 0.0
2016-Aug-26 02:29N 59°29' E 024°32'0 0.2
2016-Aug-26 01:33N 59°29' E 024°32'0 0.3
2016-Aug-26 00:33N 59°29' E 024°31'0 0.0
2016-Aug-25 23:32N 59°29' E 024°31'0 0.0
2016-Aug-25 22:33N 59°29' E 024°31'0 0.0
2016-Aug-25 21:33N 59°29' E 024°31'3 3.3
2016-Aug-25 20:33N 59°28' E 024°37'1 0.8
2016-Aug-25 19:33N 59°28' E 024°39'0 0.0
2016-Aug-25 18:33N 59°28' E 024°39'0 0.0
2016-Aug-25 17:33N 59°28' E 024°39'0 0.0
2016-Aug-25 16:33N 59°28' E 024°39'0 0.0
2016-Aug-25 15:33N 59°28' E 024°39'0 0.0
2016-Aug-25 14:33N 59°28' E 024°39'0 0.0
2016-Aug-25 13:33N 59°28' E 024°39'0 0.0
2016-Aug-25 12:33N 59°28' E 024°39'0 0.0
2016-Aug-25 11:33N 59°28' E 024°39'0 0.0
2016-Aug-25 10:33N 59°28' E 024°39'0 0.0
2016-Aug-25 09:33N 59°28' E 024°39'0 0.0
2016-Aug-25 08:33N 59°28' E 024°39'0 0.0
2016-Aug-25 07:33N 59°28' E 024°39'0 0.0
2016-Aug-25 06:33N 59°28' E 024°39'0 0.0
2016-Aug-25 04:33N 59°28' E 024°39'0 0.0
2016-Aug-25 03:33N 59°28' E 024°39'0 0.0
2016-Aug-25 02:33N 59°28' E 024°39'0 0.0
2016-Aug-25 01:33N 59°28' E 024°39'0 0.0
2016-Aug-25 00:33N 59°28' E 024°39'0 0.0
2016-Aug-24 23:33N 59°28' E 024°39'0 0.0
2016-Aug-24 22:33N 59°28' E 024°39'0 0.0
2016-Aug-24 21:33N 59°28' E 024°39'0 0.0
2016-Aug-24 20:33N 59°28' E 024°39'0 0.1
2016-Aug-24 17:33N 59°28' E 024°39'2 2.2
2016-Aug-24 16:33N 59°28' E 024°43'0 0.0
2016-Aug-24 15:24N 59°28' E 024°43'0 0.0
2016-Aug-24 14:32N 59°27' E 024°43'0 0.0
2016-Aug-24 13:28N 59°28' E 024°43'0 0.0
2016-Aug-24 12:30N 59°28' E 024°43'0 0.0
2016-Aug-24 11:33N 59°28' E 024°43'5 5.0
2016-Aug-24 10:29N 59°29' E 024°33'1 0.7
2016-Aug-24 09:33N 59°29' E 024°32'1 0.2
2016-Aug-24 06:27N 59°29' E 024°31'0 0.0
2016-Aug-24 04:31N 59°29' E 024°31'0 0.0
2016-Aug-24 03:21N 59°29' E 024°31'0 0.0
2016-Aug-24 02:24N 59°29' E 024°31'0 0.1
2016-Aug-24 01:33N 59°29' E 024°31'0 0.0
2016-Aug-24 00:32N 59°29' E 024°31'0 0.0
2016-Aug-23 23:32N 59°29' E 024°31'0 0.0
2016-Aug-23 22:32N 59°29' E 024°31'1 0.9
2016-Aug-23 21:33N 59°29' E 024°33'3 3.2
2016-Aug-23 20:33N 59°28' E 024°39'0 0.1
2016-Aug-23 18:19N 59°28' E 024°39'0 0.0
2016-Aug-23 17:33N 59°28' E 024°39'0 0.0
2016-Aug-23 16:33N 59°28' E 024°39'0 0.0
2016-Aug-23 15:33N 59°28' E 024°39'0 0.0
2016-Aug-23 14:30N 59°28' E 024°39'4 4.2
2016-Aug-23 13:33N 59°29' E 024°31'0 0.0
2016-Aug-23 12:33N 59°29' E 024°31'0 0.0
2016-Aug-23 11:31N 59°29' E 024°31'0 0.0
2016-Aug-23 10:33N 59°29' E 024°31'0 0.0
2016-Aug-23 09:29N 59°29' E 024°31'0 0.0
2016-Aug-23 08:33N 59°29' E 024°31'0 0.0
2016-Aug-23 07:32N 59°29' E 024°31'0 0.0
2016-Aug-23 06:29N 59°29' E 024°31'0 0.0
2016-Aug-23 04:33N 59°29' E 024°31'3 2.5
2016-Aug-23 03:33N 59°30' E 024°36'4 3.8
2016-Aug-23 02:33N 59°28' E 024°42'0 0.0
2016-Aug-23 01:34N 59°28' E 024°42'0 0.0
2016-Aug-23 00:34N 59°28' E 024°42'0 0.0
2016-Aug-22 23:34N 59°28' E 024°42'0 0.0
2016-Aug-22 22:34N 59°28' E 024°42'0 0.0
2016-Aug-22 21:34N 59°28' E 024°42'0 0.0
2016-Aug-22 20:34N 59°28' E 024°42'0 0.0
2016-Aug-22 19:34N 59°28' E 024°42'0 0.0
2016-Aug-22 18:34N 59°28' E 024°42'0 0.0
2016-Aug-22 17:34N 59°28' E 024°42'0 0.0
2016-Aug-22 16:33N 59°28' E 024°42'0 0.0
2016-Aug-22 15:29N 59°28' E 024°42'0 0.0
2016-Aug-22 14:13N 59°28' E 024°42'0 0.0
2016-Aug-22 13:33N 59°28' E 024°42'0 0.0
2016-Aug-22 12:32N 59°28' E 024°42'0 0.0
2016-Aug-22 11:30N 59°28' E 024°42'0 0.0
2016-Aug-22 08:27N 59°28' E 024°42'0 0.0
2016-Aug-22 07:20N 59°28' E 024°42'0 0.0
2016-Aug-22 06:30N 59°28' E 024°42'0 0.0
2016-Aug-22 05:32N 59°28' E 024°42'0 0.0
2016-Aug-22 04:31N 59°28' E 024°42'0 0.0
2016-Aug-22 03:33N 59°28' E 024°42'0 0.0
2016-Aug-22 02:33N 59°28' E 024°42'0 0.0
2016-Aug-22 01:33N 59°28' E 024°42'0 0.0
2016-Aug-22 00:33N 59°28' E 024°42'0 0.0
2016-Aug-21 23:33N 59°28' E 024°42'0 0.0
2016-Aug-21 22:33N 59°28' E 024°42'0 0.0
2016-Aug-21 21:33N 59°28' E 024°42'0 0.0
2016-Aug-21 20:33N 59°28' E 024°42'0 0.0
2016-Aug-21 19:33N 59°28' E 024°42'0 0.0
2016-Aug-21 18:33N 59°28' E 024°42'0 0.0
2016-Aug-21 17:33N 59°28' E 024°42'0 0.0
2016-Aug-21 16:33N 59°28' E 024°42'0 0.0
2016-Aug-21 15:33N 59°28' E 024°42'0 0.0
2016-Aug-21 14:33N 59°28' E 024°42'0 0.0
2016-Aug-21 13:33N 59°28' E 024°42'0 0.0
2016-Aug-21 12:33N 59°28' E 024°42'0 0.4
2016-Aug-21 11:33N 59°28' E 024°43'6 5.8
2016-Aug-21 10:33N 59°29' E 024°32'0 0.0
2016-Aug-21 09:33N 59°29' E 024°32'0 0.0
2016-Aug-21 08:33N 59°29' E 024°32'0 0.0
2016-Aug-21 07:33N 59°29' E 024°32'4 3.7
2016-Aug-21 06:33N 59°28' E 024°39'0 0.1
2016-Aug-21 05:33N 59°28' E 024°39'0 0.0
2016-Aug-21 04:33N 59°28' E 024°39'  
Track history (hours):
 
Tides and Currents Weather Stations Pressure Air Temp Water Temp Dewpoint Dewpoint Depression Visibility Wind Speed Wind Dir Waves Ship Positions

Viimsi

Last reported at 2016-Aug-31 04:33 UTC. Time now 2016-Aug-31 06:11 UTC.
Position N 59°28' E 024°43'.

Length 78 m; draft 4.5 m.

Type: Ship. MMSI: 276297000.

Date/timePositionNaut miles runAvg speedWind from/ knotsBaromVisibWave heightAir tempDewpointWater temp
2016-Aug-31 04:33N 59°28' E 024°43'0 0.0
2016-Aug-31 03:33N 59°28' E 024°43'0 0.0
2016-Aug-31 02:33N 59°28' E 024°43'0 0.0
2016-Aug-31 01:33N 59°28' E 024°43'0 0.0
2016-Aug-31 00:33N 59°28' E 024°43'0 0.0
2016-Aug-30 23:33N 59°28' E 024°43'0 0.2
2016-Aug-30 22:33N 59°28' E 024°43'0 0.0
2016-Aug-30 21:33N 59°28' E 024°43'0 0.1
2016-Aug-30 20:34N 59°28' E 024°43'7 6.8
2016-Aug-30 19:33N 59°34' E 024°41'5 5.1
2016-Aug-30 18:33N 59°35' E 024°51'2 0.5
2016-Aug-30 13:33N 59°33' E 024°54'6 6.2
2016-Aug-30 12:33N 59°35' E 024°42'8 7.6
2016-Aug-30 11:34N 59°28' E 024°38'1 0.6
2016-Aug-30 10:33N 59°28' E 024°39'0 0.0
2016-Aug-30 09:33N 59°28' E 024°39'0 0.0
2016-Aug-30 08:33N 59°28' E 024°39'1 1.2
2016-Aug-30 07:33N 59°29' E 024°38'3 2.8
2016-Aug-30 06:33N 59°28' E 024°43'0 0.0
2016-Aug-30 05:33N 59°28' E 024°43'0 0.2
2016-Aug-30 04:33N 59°28' E 024°43'0 0.0
2016-Aug-30 03:33N 59°28' E 024°43'0 0.0
2016-Aug-30 02:33N 59°28' E 024°43'0 0.0
2016-Aug-30 01:33N 59°28' E 024°43'0 0.0
2016-Aug-30 00:33N 59°28' E 024°43'0 0.0
2016-Aug-29 23:33N 59°28' E 024°43'0 0.0
2016-Aug-29 22:33N 59°28' E 024°43'0 0.0
2016-Aug-29 21:33N 59°28' E 024°43'0 0.0
2016-Aug-29 20:33N 59°28' E 024°43'0 0.0
2016-Aug-29 19:33N 59°28' E 024°43'0 0.0
2016-Aug-29 18:33N 59°28' E 024°43'0 0.0
2016-Aug-29 17:33N 59°28' E 024°43'0 0.0
2016-Aug-29 16:33N 59°28' E 024°43'0 0.1
2016-Aug-29 15:33N 59°28' E 024°43'0 0.1
2016-Aug-29 13:20N 59°28' E 024°43'0 0.0
2016-Aug-29 12:28N 59°28' E 024°43'0 0.0
2016-Aug-29 11:29N 59°28' E 024°43'0 0.0
2016-Aug-29 10:25N 59°28' E 024°43'0 0.0
2016-Aug-29 09:33N 59°28' E 024°43'0 0.0
2016-Aug-29 08:28N 59°28' E 024°43'5 1.8
2016-Aug-29 05:32N 59°29' E 024°32'0 0.0
2016-Aug-29 04:31N 59°29' E 024°32'0 0.0
2016-Aug-29 03:33N 59°29' E 024°32'1 1.4
2016-Aug-29 02:33N 59°29' E 024°35'2 2.1
2016-Aug-29 01:33N 59°28' E 024°39'0 0.0
2016-Aug-29 00:33N 59°28' E 024°39'0 0.0
2016-Aug-28 23:34N 59°28' E 024°39'0 0.0
2016-Aug-28 22:34N 59°28' E 024°39'0 0.0
2016-Aug-28 21:33N 59°28' E 024°39'0 0.0
2016-Aug-28 20:34N 59°28' E 024°39'0 0.0
2016-Aug-28 19:33N 59°28' E 024°39'0 0.0
2016-Aug-28 18:33N 59°28' E 024°39'0 0.0
2016-Aug-28 17:33N 59°28' E 024°39'0 0.0
2016-Aug-28 16:34N 59°28' E 024°39'0 0.0
2016-Aug-28 15:33N 59°28' E 024°39'0 0.0
2016-Aug-28 14:33N 59°28' E 024°39'0 0.0
2016-Aug-28 13:33N 59°28' E 024°39'0 0.0
2016-Aug-28 12:33N 59°28' E 024°39'0 0.0
2016-Aug-28 11:33N 59°28' E 024°39'0 0.0
2016-Aug-28 10:33N 59°28' E 024°39'1 1.2
2016-Aug-28 09:33N 59°29' E 024°37'5 4.7
2016-Aug-28 08:34N 59°27' E 024°46'0 0.0
2016-Aug-28 07:33N 59°27' E 024°46'0 0.0
2016-Aug-28 06:34N 59°27' E 024°46'0 0.0
2016-Aug-28 05:34N 59°27' E 024°46'2 1.5
2016-Aug-28 04:34N 59°28' E 024°43'0 0.0
2016-Aug-28 03:33N 59°28' E 024°43'0 0.0
2016-Aug-28 02:33N 59°28' E 024°43'0 0.0
2016-Aug-28 01:34N 59°28' E 024°43'0 0.0
2016-Aug-28 00:34N 59°28' E 024°43'0 0.0
2016-Aug-27 23:34N 59°28' E 024°43'0 0.0
2016-Aug-27 22:34N 59°28' E 024°43'0 0.0
2016-Aug-27 21:33N 59°28' E 024°43'0 0.0
2016-Aug-27 20:34N 59°28' E 024°43'0 0.0
2016-Aug-27 19:34N 59°28' E 024°43'0 0.0
2016-Aug-27 18:33N 59°28' E 024°43'0 0.0
2016-Aug-27 17:33N 59°28' E 024°43'0 0.0
2016-Aug-27 16:34N 59°28' E 024°43'0 0.0
2016-Aug-27 15:33N 59°28' E 024°43'0 0.0
2016-Aug-27 14:33N 59°28' E 024°43'0 0.0
2016-Aug-27 13:33N 59°28' E 024°43'0 0.0
2016-Aug-27 12:33N 59°28' E 024°43'1 1.4
2016-Aug-27 11:33N 59°29' E 024°44'5 5.3
2016-Aug-27 10:34N 59°29' E 024°34'1 0.6
2016-Aug-27 09:32N 59°29' E 024°33'0 0.0
2016-Aug-27 08:33N 59°29' E 024°33'0 0.0
2016-Aug-27 07:33N 59°29' E 024°33'0 0.0
2016-Aug-27 06:31N 59°29' E 024°33'0 0.0
2016-Aug-27 04:26N 59°29' E 024°33'0 0.0
2016-Aug-27 03:29N 59°29' E 024°33'0 0.0
2016-Aug-27 02:33N 59°29' E 024°33'0 0.0
2016-Aug-27 01:34N 59°29' E 024°33'1 0.6
2016-Aug-27 00:33N 59°29' E 024°34'5 4.9
2016-Aug-26 23:33N 59°28' E 024°43'0 0.2
2016-Aug-26 22:33N 59°28' E 024°43'0 0.0
2016-Aug-26 21:33N 59°28' E 024°43'0 0.0
2016-Aug-26 20:33N 59°28' E 024°43'0 0.0
2016-Aug-26 19:33N 59°28' E 024°43'0 0.0
2016-Aug-26 18:33N 59°28' E 024°43'0 0.0
2016-Aug-26 17:33N 59°28' E 024°43'0 0.0
2016-Aug-26 16:33N 59°28' E 024°43'0 0.0
2016-Aug-26 15:33N 59°28' E 024°43'0 0.0
2016-Aug-26 14:33N 59°28' E 024°43'0 0.0
2016-Aug-26 13:33N 59°28' E 024°43'0 0.0
2016-Aug-26 12:33N 59°28' E 024°43'0 0.0
2016-Aug-26 11:33N 59°28' E 024°43'0 0.0
2016-Aug-26 10:33N 59°28' E 024°43'0 0.0
2016-Aug-26 09:33N 59°28' E 024°43'0 0.0
2016-Aug-26 08:33N 59°28' E 024°43'0 0.0
2016-Aug-26 07:34N 59°28' E 024°43'0 0.0
2016-Aug-26 06:33N 59°28' E 024°43'6 2.7
2016-Aug-26 04:28N 59°29' E 024°32'0 0.0
2016-Aug-26 03:33N 59°29' E 024°32'0 0.0
2016-Aug-26 02:29N 59°29' E 024°32'0 0.2
2016-Aug-26 01:33N 59°29' E 024°32'0 0.3
2016-Aug-26 00:33N 59°29' E 024°31'0 0.0
2016-Aug-25 23:32N 59°29' E 024°31'0 0.0
2016-Aug-25 22:33N 59°29' E 024°31'0 0.0
2016-Aug-25 21:33N 59°29' E 024°31'3 3.3
2016-Aug-25 20:33N 59°28' E 024°37'1 0.8
2016-Aug-25 19:33N 59°28' E 024°39'0 0.0
2016-Aug-25 18:33N 59°28' E 024°39'0 0.0
2016-Aug-25 17:33N 59°28' E 024°39'0 0.0
2016-Aug-25 16:33N 59°28' E 024°39'0 0.0
2016-Aug-25 15:33N 59°28' E 024°39'0 0.0
2016-Aug-25 14:33N 59°28' E 024°39'0 0.0
2016-Aug-25 13:33N 59°28' E 024°39'0 0.0
2016-Aug-25 12:33N 59°28' E 024°39'0 0.0
2016-Aug-25 11:33N 59°28' E 024°39'0 0.0
2016-Aug-25 10:33N 59°28' E 024°39'0 0.0
2016-Aug-25 09:33N 59°28' E 024°39'0 0.0
2016-Aug-25 08:33N 59°28' E 024°39'0 0.0
2016-Aug-25 07:33N 59°28' E 024°39'0 0.0
2016-Aug-25 06:33N 59°28' E 024°39'0 0.0
2016-Aug-25 04:33N 59°28' E 024°39'0 0.0
2016-Aug-25 03:33N 59°28' E 024°39'0 0.0
2016-Aug-25 02:33N 59°28' E 024°39'0 0.0
2016-Aug-25 01:33N 59°28' E 024°39'0 0.0
2016-Aug-25 00:33N 59°28' E 024°39'0 0.0
2016-Aug-24 23:33N 59°28' E 024°39'0 0.0
2016-Aug-24 22:33N 59°28' E 024°39'0 0.0
2016-Aug-24 21:33N 59°28' E 024°39'0 0.0
2016-Aug-24 20:33N 59°28' E 024°39'0 0.1
2016-Aug-24 17:33N 59°28' E 024°39'2 2.2
2016-Aug-24 16:33N 59°28' E 024°43'0 0.0
2016-Aug-24 15:24N 59°28' E 024°43'0 0.0
2016-Aug-24 14:32N 59°27' E 024°43'0 0.0
2016-Aug-24 13:28N 59°28' E 024°43'0 0.0
2016-Aug-24 12:30N 59°28' E 024°43'0 0.0
2016-Aug-24 11:33N 59°28' E 024°43'5 5.0
2016-Aug-24 10:29N 59°29' E 024°33'1 0.7
2016-Aug-24 09:33N 59°29' E 024°32'1 0.2
2016-Aug-24 06:27N 59°29' E 024°31'0 0.0
2016-Aug-24 04:31N 59°29' E 024°31'0 0.0
2016-Aug-24 03:21N 59°29' E 024°31'0 0.0
2016-Aug-24 02:24N 59°29' E 024°31'0 0.1
2016-Aug-24 01:33N 59°29' E 024°31'0 0.0
2016-Aug-24 00:32N 59°29' E 024°31'0 0.0
2016-Aug-23 23:32N 59°29' E 024°31'0 0.0
2016-Aug-23 22:32N 59°29' E 024°31'1 0.9
2016-Aug-23 21:33N 59°29' E 024°33'3 3.2
2016-Aug-23 20:33N 59°28' E 024°39'0 0.1
2016-Aug-23 18:19N 59°28' E 024°39'0 0.0
2016-Aug-23 17:33N 59°28' E 024°39'0 0.0
2016-Aug-23 16:33N 59°28' E 024°39'0 0.0
2016-Aug-23 15:33N 59°28' E 024°39'0 0.0
2016-Aug-23 14:30N 59°28' E 024°39'4 4.2
2016-Aug-23 13:33N 59°29' E 024°31'0 0.0
2016-Aug-23 12:33N 59°29' E 024°31'0 0.0
2016-Aug-23 11:31N 59°29' E 024°31'0 0.0
2016-Aug-23 10:33N 59°29' E 024°31'0 0.0
2016-Aug-23 09:29N 59°29' E 024°31'0 0.0
2016-Aug-23 08:33N 59°29' E 024°31'0 0.0
2016-Aug-23 07:32N 59°29' E 024°31'0 0.0
2016-Aug-23 06:29N 59°29' E 024°31'0 0.0
2016-Aug-23 04:33N 59°29' E 024°31'3 2.5
2016-Aug-23 03:33N 59°30' E 024°36'4 3.8
2016-Aug-23 02:33N 59°28' E 024°42'0 0.0
2016-Aug-23 01:34N 59°28' E 024°42'0 0.0
2016-Aug-23 00:34N 59°28' E 024°42'0 0.0
2016-Aug-22 23:34N 59°28' E 024°42'0 0.0
2016-Aug-22 22:34N 59°28' E 024°42'0 0.0
2016-Aug-22 21:34N 59°28' E 024°42'0 0.0
2016-Aug-22 20:34N 59°28' E 024°42'0 0.0
2016-Aug-22 19:34N 59°28' E 024°42'0 0.0
2016-Aug-22 18:34N 59°28' E 024°42'0 0.0
2016-Aug-22 17:34N 59°28' E 024°42'0 0.0
2016-Aug-22 16:33N 59°28' E 024°42'0 0.0
2016-Aug-22 15:29N 59°28' E 024°42'0 0.0
2016-Aug-22 14:13N 59°28' E 024°42'0 0.0
2016-Aug-22 13:33N 59°28' E 024°42'0 0.0
2016-Aug-22 12:32N 59°28' E 024°42'0 0.0
2016-Aug-22 11:30N 59°28' E 024°42'0 0.0
2016-Aug-22 08:27N 59°28' E 024°42'0 0.0
2016-Aug-22 07:20N 59°28' E 024°42'0 0.0
2016-Aug-22 06:30N 59°28' E 024°42'0 0.0
2016-Aug-22 05:32N 59°28' E 024°42'0 0.0
2016-Aug-22 04:31N 59°28' E 024°42'0 0.0
2016-Aug-22 03:33N 59°28' E 024°42'0 0.0
2016-Aug-22 02:33N 59°28' E 024°42'0 0.0
2016-Aug-22 01:33N 59°28' E 024°42'0 0.0
2016-Aug-22 00:33N 59°28' E 024°42'0 0.0
2016-Aug-21 23:33N 59°28' E 024°42'0 0.0
2016-Aug-21 22:33N 59°28' E 024°42'0 0.0
2016-Aug-21 21:33N 59°28' E 024°42'0 0.0
2016-Aug-21 20:33N 59°28' E 024°42'0 0.0
2016-Aug-21 19:33N 59°28' E 024°42'0 0.0
2016-Aug-21 18:33N 59°28' E 024°42'0 0.0
2016-Aug-21 17:33N 59°28' E 024°42'0 0.0
2016-Aug-21 16:33N 59°28' E 024°42'0 0.0
2016-Aug-21 15:33N 59°28' E 024°42'0 0.0
2016-Aug-21 14:33N 59°28' E 024°42'0 0.0
2016-Aug-21 13:33N 59°28' E 024°42'0 0.0
2016-Aug-21 12:33N 59°28' E 024°42'0 0.4
2016-Aug-21 11:33N 59°28' E 024°43'6 5.8
2016-Aug-21 10:33N 59°29' E 024°32'0 0.0
2016-Aug-21 09:33N 59°29' E 024°32'0 0.0
2016-Aug-21 08:33N 59°29' E 024°32'0 0.0
2016-Aug-21 07:33N 59°29' E 024°32'4 3.7
2016-Aug-21 06:33N 59°28' E 024°39'0 0.1
2016-Aug-21 05:33N 59°28' E 024°39'0 0.0
2016-Aug-21 04:33N 59°28' E 024°39'  

Dump ship's entire track history